createdAt,value
2018-08-17T00:00:00.713Z,13.40
2018-08-17T00:02:29.200Z,12.63
2018-08-17T00:04:57.581Z,13.73
2018-08-17T00:07:26.016Z,13.53
2018-08-17T00:09:54.396Z,13.63
2018-08-17T00:12:23.505Z,13.33
2018-08-17T00:14:51.968Z,12.90
2018-08-17T00:17:20.412Z,13.67
2018-08-17T00:19:48.909Z,13.40
2018-08-17T00:22:17.393Z,12.70
2018-08-17T00:24:45.775Z,14.50
2018-08-17T00:27:14.184Z,14.33
2018-08-17T00:29:42.606Z,14.73
2018-08-17T00:32:11.039Z,14.70
2018-08-17T00:34:39.523Z,15.60
2018-08-17T00:37:07.952Z,13.40
2018-08-17T00:39:36.352Z,13.60
2018-08-17T00:42:04.759Z,13.40
2018-08-17T00:44:33.150Z,13.77
2018-08-17T00:47:01.620Z,14.90
2018-08-17T00:49:30.001Z,15.63
2018-08-17T00:51:58.445Z,14.57
2018-08-17T00:54:27.055Z,13.80
2018-08-17T00:56:55.464Z,15.37
2018-08-17T00:59:23.888Z,14.67
2018-08-17T01:01:52.270Z,15.13
2018-08-17T01:04:20.885Z,14.67
2018-08-17T01:06:49.315Z,13.27
2018-08-17T01:09:17.892Z,13.57
2018-08-17T01:11:46.315Z,13.67
2018-08-17T01:14:14.689Z,13.90
2018-08-17T01:16:43.180Z,13.63
2018-08-17T01:19:11.584Z,13.40
2018-08-17T01:21:39.984Z,14.70
2018-08-17T01:24:08.402Z,13.80
2018-08-17T01:26:36.828Z,13.27
2018-08-17T01:29:05.252Z,15.43
2018-08-17T01:31:33.732Z,14.10
2018-08-17T01:34:02.168Z,14.43
2018-08-17T01:36:30.584Z,14.53
2018-08-17T01:38:59.034Z,14.70
2018-08-17T01:41:27.428Z,15.67
2018-08-17T01:43:55.835Z,15.40
2018-08-17T01:46:24.233Z,15.37
2018-08-17T01:48:52.663Z,15.23
2018-08-17T01:51:21.064Z,15.07
2018-08-17T01:53:49.496Z,16.53
2018-08-17T01:56:17.908Z,17.57
2018-08-17T01:58:46.318Z,19.20
2018-08-17T02:01:14.909Z,19.23
2018-08-17T02:03:43.297Z,18.70
2018-08-17T02:06:11.856Z,17.70
2018-08-17T02:08:40.304Z,16.37
2018-08-17T02:11:08.989Z,17.57
2018-08-17T02:13:37.388Z,15.33
2018-08-17T02:16:05.779Z,14.93
2018-08-17T02:18:34.189Z,15.40
2018-08-17T02:21:02.616Z,15.93
2018-08-17T02:23:31.067Z,17.60
2018-08-17T02:25:59.478Z,16.00
2018-08-17T02:28:27.857Z,17.40
2018-08-17T02:30:56.308Z,17.73
2018-08-17T02:33:24.716Z,18.03
2018-08-17T02:35:53.158Z,19.60
2018-08-17T02:38:21.548Z,16.77
2018-08-17T02:40:49.990Z,18.33
2018-08-17T02:43:18.401Z,17.60
2018-08-17T02:45:46.813Z,18.37
2018-08-17T02:48:15.231Z,21.57
2018-08-17T02:50:43.649Z,21.37
2018-08-17T02:53:12.037Z,24.00
2018-08-17T02:55:40.473Z,25.23
2018-08-17T02:58:08.884Z,24.57
2018-08-17T03:00:37.621Z,25.03
2018-08-17T03:03:06.272Z,27.60
2018-08-17T03:05:34.675Z,29.33
2018-08-17T03:08:03.126Z,28.67
2018-08-17T03:10:31.531Z,28.47
2018-08-17T03:12:59.935Z,28.80
2018-08-17T03:15:28.385Z,28.27
2018-08-17T03:17:56.902Z,26.13
2018-08-17T03:20:25.320Z,27.57
2018-08-17T03:22:53.713Z,25.67
2018-08-17T03:25:22.137Z,26.67
2018-08-17T03:27:50.568Z,26.43
2018-08-17T03:30:19.007Z,25.97
2018-08-17T03:32:47.436Z,25.63
2018-08-17T03:35:15.868Z,24.20
2018-08-17T03:37:44.394Z,24.30
2018-08-17T03:40:12.779Z,23.53
2018-08-17T03:42:41.224Z,20.90
2018-08-17T03:45:09.646Z,23.17
2018-08-17T03:47:38.029Z,24.73
2018-08-17T03:50:07.447Z,23.57
2018-08-17T03:52:35.882Z,22.90
2018-08-17T03:55:04.632Z,24.47
2018-08-17T03:57:33.260Z,22.87
2018-08-17T04:00:01.685Z,23.60
2018-08-17T04:02:30.925Z,23.13
2018-08-17T04:04:59.334Z,22.87
2018-08-17T04:07:27.804Z,19.83
2018-08-17T04:09:56.264Z,22.40
2018-08-17T04:12:24.755Z,21.03
2018-08-17T04:14:54.056Z,20.27
2018-08-17T04:17:23.142Z,19.20
2018-08-17T04:19:51.880Z,17.53
2018-08-17T04:22:20.502Z,16.77
2018-08-17T04:24:50.681Z,15.23
2018-08-17T04:27:19.682Z,16.77
2018-08-17T04:29:50.486Z,14.50
2018-08-17T04:32:19.136Z,14.57
2018-08-17T04:34:48.622Z,13.27
2018-08-17T04:37:18.508Z,12.77
2018-08-17T04:39:47.276Z,13.00
2018-08-17T04:42:22.857Z,12.43
2018-08-17T04:44:51.529Z,12.10
2018-08-17T04:47:20.232Z,11.50
2018-08-17T04:49:48.670Z,11.00
2018-08-17T04:52:17.503Z,10.50
2018-08-17T04:54:45.968Z,11.20
2018-08-17T04:57:14.461Z,10.77
2018-08-17T04:59:42.948Z,14.77
2018-08-17T05:02:11.628Z,10.20
2018-08-17T05:04:40.556Z,10.30
2018-08-17T05:07:10.117Z,9.10
2018-08-17T05:09:38.527Z,8.77
2018-08-17T05:12:07.219Z,9.00
2018-08-17T05:14:35.769Z,8.33
2018-08-17T05:17:04.418Z,7.70
2018-08-17T05:19:32.838Z,7.73
2018-08-17T05:22:01.300Z,7.03
2018-08-17T05:24:29.903Z,6.57
2018-08-17T05:26:58.312Z,6.57
2018-08-17T05:29:26.728Z,6.10
2018-08-17T05:31:55.201Z,5.90
2018-08-17T05:34:23.617Z,5.90
2018-08-17T05:36:52.206Z,5.50
2018-08-17T05:39:20.655Z,5.77
2018-08-17T05:41:49.264Z,5.63
2018-08-17T05:44:17.704Z,5.13
2018-08-17T05:46:46.181Z,4.90
2018-08-17T05:49:14.627Z,5.40
2018-08-17T05:51:43.040Z,5.13
2018-08-17T05:54:11.409Z,6.57
2018-08-17T05:56:39.899Z,5.20
2018-08-17T05:59:08.260Z,5.10
2018-08-17T06:01:36.656Z,4.80
2018-08-17T06:04:05.132Z,4.70
2018-08-17T06:06:33.560Z,4.83
2018-08-17T06:09:02.010Z,4.47
2018-08-17T06:11:30.479Z,4.60
2018-08-17T06:13:58.854Z,5.10
2018-08-17T06:16:27.952Z,4.87
2018-08-17T06:18:56.395Z,4.47
2018-08-17T06:21:24.856Z,5.27
2018-08-17T06:23:53.752Z,5.67
2018-08-17T06:26:22.138Z,5.33
2018-08-17T06:28:50.690Z,6.20
2018-08-17T06:31:19.148Z,6.67
2018-08-17T06:33:47.820Z,6.23
2018-08-17T06:36:16.322Z,5.83
2018-08-17T06:38:44.745Z,6.50
2018-08-17T06:41:13.143Z,6.83
2018-08-17T06:43:41.647Z,6.20
2018-08-17T06:46:10.088Z,5.67
2018-08-17T06:48:38.508Z,5.57
2018-08-17T06:51:06.982Z,6.67
2018-08-17T06:53:35.325Z,6.27
2018-08-17T06:56:03.797Z,6.30
2018-08-17T06:58:32.191Z,5.40
2018-08-17T07:01:00.619Z,5.77
2018-08-17T07:03:29.017Z,4.93
2018-08-17T07:05:57.629Z,5.13
2018-08-17T07:08:26.032Z,5.30
2018-08-17T07:10:54.447Z,5.20
2018-08-17T07:13:22.880Z,5.93
2018-08-17T07:15:51.453Z,5.87
2018-08-17T07:18:20.040Z,5.10
2018-08-17T07:20:48.454Z,5.00
2018-08-17T07:23:16.925Z,5.63
2018-08-17T07:25:45.380Z,5.27
2018-08-17T07:28:13.849Z,5.83
2018-08-17T07:30:42.244Z,5.53
2018-08-17T07:33:11.144Z,5.00
2018-08-17T07:35:39.559Z,5.20
2018-08-17T07:38:08.040Z,4.87
2018-08-17T07:40:36.439Z,4.53
2018-08-17T07:43:04.874Z,4.90
2018-08-17T07:45:33.280Z,5.00
2018-08-17T07:48:01.723Z,5.37
2018-08-17T07:50:30.033Z,5.30
2018-08-17T07:52:58.462Z,5.23
2018-08-17T07:55:26.848Z,6.67
2018-08-17T07:57:55.320Z,5.07
2018-08-17T08:00:23.741Z,4.63
2018-08-17T08:02:52.200Z,5.23
2018-08-17T08:05:20.668Z,4.70
2018-08-17T08:07:49.096Z,5.37
2018-08-17T08:10:17.557Z,4.67
2018-08-17T08:12:46.124Z,5.00
2018-08-17T08:15:14.523Z,4.70
2018-08-17T08:17:43.026Z,4.30
2018-08-17T08:20:22.806Z,4.43
2018-08-17T08:23:01.247Z,4.50
2018-08-17T08:25:29.616Z,4.47
2018-08-17T08:27:58.068Z,4.30
2018-08-17T08:30:26.451Z,3.90
2018-08-17T08:32:54.879Z,4.37
2018-08-17T08:35:23.266Z,4.30
2018-08-17T08:37:51.726Z,4.20
2018-08-17T08:40:20.124Z,5.10
2018-08-17T08:42:48.613Z,6.60
2018-08-17T08:45:17.144Z,4.50
2018-08-17T08:47:45.528Z,4.23
2018-08-17T08:50:14.004Z,4.30
2018-08-17T08:52:42.504Z,4.60
2018-08-17T08:55:10.963Z,4.43
2018-08-17T08:57:39.756Z,5.40
2018-08-17T09:00:09.175Z,5.03
2018-08-17T09:02:37.964Z,7.23
2018-08-17T09:05:06.641Z,6.57
2018-08-17T09:07:35.340Z,6.50
2018-08-17T09:10:04.553Z,5.07
2018-08-17T09:12:32.949Z,4.60
2018-08-17T09:15:01.462Z,4.03
2018-08-17T09:17:30.175Z,3.30
2018-08-17T09:19:58.640Z,3.50
2018-08-17T09:22:27.052Z,2.80
2018-08-17T09:24:55.451Z,2.93
2018-08-17T09:27:23.832Z,2.70
2018-08-17T09:29:52.250Z,2.80
2018-08-17T09:32:20.753Z,3.27
2018-08-17T09:34:49.197Z,3.67
2018-08-17T09:37:17.686Z,2.23
2018-08-17T09:39:46.116Z,2.60
2018-08-17T09:42:14.578Z,2.50
2018-08-17T09:44:42.978Z,6.40
2018-08-17T09:47:11.544Z,7.43
2018-08-17T09:49:39.950Z,9.80
2018-08-17T09:52:08.501Z,10.30
2018-08-17T09:54:37.008Z,18.60
2018-08-17T09:57:05.887Z,15.17
2018-08-17T09:59:34.556Z,12.43
2018-08-17T10:02:09.636Z,10.47
2018-08-17T10:04:41.433Z,9.13
2018-08-17T10:07:15.697Z,8.23
2018-08-17T10:09:49.373Z,6.77
2018-08-17T10:12:17.857Z,6.63
2018-08-17T10:14:46.253Z,7.73
2018-08-17T10:17:14.710Z,6.17
2018-08-17T10:19:43.125Z,11.53
2018-08-17T10:22:11.645Z,6.40
2018-08-17T10:24:39.938Z,6.17
2018-08-17T10:27:08.590Z,7.00
2018-08-17T10:29:38.772Z,7.13
2018-08-17T10:32:07.688Z,7.50
2018-08-17T10:34:36.118Z,6.73
2018-08-17T10:37:04.528Z,5.50
2018-08-17T10:39:32.950Z,5.57
2018-08-17T10:42:01.316Z,7.90
2018-08-17T10:44:29.919Z,5.20
2018-08-17T10:46:58.304Z,9.63
2018-08-17T10:49:27.069Z,11.27
2018-08-17T10:51:57.100Z,11.00
2018-08-17T10:54:26.173Z,10.40
2018-08-17T10:56:54.724Z,12.13
2018-08-17T10:59:23.149Z,11.87
2018-08-17T11:01:51.590Z,12.50
2018-08-17T11:04:20.064Z,13.77
2018-08-17T11:06:48.492Z,11.83
2018-08-17T11:09:17.283Z,12.50
2018-08-17T11:11:45.664Z,11.60
2018-08-17T11:14:14.141Z,13.53
2018-08-17T11:16:42.577Z,12.17
2018-08-17T11:19:10.985Z,10.30
2018-08-17T11:21:39.396Z,12.30
2018-08-17T11:24:07.844Z,9.80
2018-08-17T11:26:37.644Z,8.57
2018-08-17T11:29:06.112Z,6.93
2018-08-17T11:31:34.526Z,7.50
2018-08-17T11:34:02.982Z,7.03
2018-08-17T11:36:31.400Z,7.20
2018-08-17T11:38:59.800Z,6.90
2018-08-17T11:41:28.272Z,7.87
2018-08-17T11:43:58.116Z,7.23
2018-08-17T11:46:26.588Z,7.57
2018-08-17T11:48:54.964Z,7.33
2018-08-17T11:51:23.454Z,7.83
2018-08-17T11:53:51.994Z,7.93
2018-08-17T11:56:20.421Z,8.40
2018-08-17T11:58:48.812Z,7.57
2018-08-17T12:01:22.573Z,7.50
2018-08-17T12:03:51.032Z,8.40
2018-08-17T12:06:19.450Z,8.30
2018-08-17T12:08:47.850Z,7.40
2018-08-17T12:11:16.363Z,8.30
2018-08-17T12:13:44.763Z,7.30
2018-08-17T12:16:13.240Z,8.43
2018-08-17T12:18:41.715Z,9.13
2018-08-17T12:21:10.120Z,8.77
2018-08-17T12:23:38.532Z,9.90
2018-08-17T12:26:07.174Z,8.80
2018-08-17T12:28:35.560Z,8.40
2018-08-17T12:31:04.046Z,9.23
2018-08-17T12:33:32.615Z,8.93
2018-08-17T12:36:01.018Z,6.33
2018-08-17T12:38:29.473Z,6.57
2018-08-17T12:40:58.745Z,7.80
2018-08-17T12:43:38.947Z,8.70
2018-08-17T12:46:07.566Z,8.13
2018-08-17T12:48:35.975Z,7.70
2018-08-17T12:51:05.493Z,8.47
2018-08-17T12:53:34.715Z,8.40
2018-08-17T12:56:03.157Z,8.03
2018-08-17T12:58:31.559Z,7.27
2018-08-17T13:01:00.040Z,9.50
2018-08-17T13:03:28.480Z,9.50
2018-08-17T13:05:56.928Z,12.23
2018-08-17T13:08:25.331Z,11.23
2018-08-17T13:10:55.371Z,11.83
2018-08-17T13:13:23.761Z,9.67
2018-08-17T13:15:57.339Z,9.00
2018-08-17T13:18:25.768Z,8.80
2018-08-17T13:20:54.173Z,9.40
2018-08-17T13:23:22.605Z,10.00
2018-08-17T13:25:51.024Z,9.60
2018-08-17T13:28:19.438Z,10.40
2018-08-17T13:30:47.846Z,10.20
2018-08-17T13:33:16.421Z,10.07
2018-08-17T13:35:45.085Z,10.63
2018-08-17T13:38:13.545Z,10.40
2018-08-17T13:40:42.066Z,9.63
2018-08-17T13:43:10.517Z,10.03
2018-08-17T13:45:38.933Z,8.83
2018-08-17T13:48:07.758Z,9.90
2018-08-17T13:50:36.637Z,9.57
2018-08-17T13:53:05.379Z,9.70
2018-08-17T13:55:33.848Z,8.97
2018-08-17T13:58:02.290Z,7.83
2018-08-17T14:00:30.713Z,7.40
2018-08-17T14:02:59.204Z,8.60
2018-08-17T14:05:27.663Z,8.37
2018-08-17T14:07:56.064Z,6.80
2018-08-17T14:10:24.508Z,6.20
2018-08-17T14:12:52.959Z,5.30
2018-08-17T14:15:21.415Z,5.97
2018-08-17T14:17:49.881Z,6.23
2018-08-17T14:20:18.283Z,5.93
2018-08-17T14:22:46.777Z,6.40
2018-08-17T14:25:15.308Z,5.23
2018-08-17T14:27:43.752Z,5.00
2018-08-17T14:30:15.620Z,5.07
2018-08-17T14:32:44.298Z,6.13
2018-08-17T14:35:13.272Z,7.57
2018-08-17T14:37:42.168Z,5.00
2018-08-17T14:40:11.020Z,4.90
2018-08-17T14:42:40.185Z,5.30
2018-08-17T14:45:09.890Z,5.90
2018-08-17T14:47:38.552Z,4.97
2018-08-17T14:50:09.074Z,4.63
2018-08-17T14:52:38.500Z,5.07
2018-08-17T14:55:07.497Z,4.87
2018-08-17T14:57:35.944Z,5.23
2018-08-17T15:00:06.392Z,5.53
2018-08-17T15:02:34.774Z,5.00
2018-08-17T15:05:03.216Z,5.20
2018-08-17T15:07:32.126Z,4.70
2018-08-17T15:10:00.554Z,4.50
2018-08-17T15:12:28.959Z,4.30
2018-08-17T15:14:57.378Z,4.53
2018-08-17T15:17:25.940Z,4.53
2018-08-17T15:19:54.484Z,4.40
2018-08-17T15:22:22.936Z,5.00
2018-08-17T15:24:51.527Z,4.33
2018-08-17T15:27:19.956Z,4.27
2018-08-17T15:29:48.431Z,4.60
2018-08-17T15:32:16.916Z,5.27
2018-08-17T15:34:45.309Z,5.10
2018-08-17T15:37:13.822Z,7.70
2018-08-17T15:39:42.237Z,5.23
2018-08-17T15:42:10.680Z,4.40
2018-08-17T15:44:39.087Z,4.53
2018-08-17T15:47:07.544Z,5.33
2018-08-17T15:49:36.831Z,5.53
2018-08-17T15:52:06.567Z,5.60
2018-08-17T15:54:34.866Z,5.93
2018-08-17T15:57:03.288Z,5.17
2018-08-17T15:59:31.841Z,4.37
2018-08-17T16:02:00.289Z,4.33
2018-08-17T16:04:28.752Z,5.13
2018-08-17T16:06:57.176Z,4.30
2018-08-17T16:09:25.578Z,4.83
2018-08-17T16:11:54.173Z,5.23
2018-08-17T16:14:22.636Z,5.00
2018-08-17T16:16:51.039Z,5.07
2018-08-17T16:19:19.467Z,4.60
2018-08-17T16:21:47.878Z,9.20
2018-08-17T16:24:16.415Z,4.37
2018-08-17T16:26:44.822Z,4.73
2018-08-17T16:29:13.227Z,5.17
2018-08-17T16:31:42.490Z,5.17
2018-08-17T16:34:11.159Z,4.73
2018-08-17T16:36:41.793Z,5.53
2018-08-17T16:39:18.457Z,10.37
2018-08-17T16:41:46.900Z,4.57
2018-08-17T16:44:15.321Z,4.70
2018-08-17T16:46:44.100Z,4.90
2018-08-17T16:49:12.597Z,4.60
2018-08-17T16:51:41.018Z,4.80
2018-08-17T16:54:09.444Z,4.10
2018-08-17T16:56:37.923Z,4.80
2018-08-17T16:59:06.954Z,4.30
2018-08-17T17:01:35.385Z,5.43
2018-08-17T17:04:04.205Z,4.60
2018-08-17T17:06:32.877Z,4.50
2018-08-17T17:09:04.641Z,5.13
2018-08-17T17:11:33.324Z,7.10
2018-08-17T17:14:01.872Z,5.97
2018-08-17T17:16:37.700Z,6.23
2018-08-17T17:19:11.892Z,6.13
2018-08-17T17:21:41.970Z,7.40
2018-08-17T17:24:10.436Z,6.87
2018-08-17T17:26:38.820Z,7.33
2018-08-17T17:29:07.628Z,9.27
2018-08-17T17:31:36.053Z,7.30
2018-08-17T17:34:04.478Z,7.10
2018-08-17T17:36:32.984Z,5.93
2018-08-17T17:39:01.559Z,5.60
2018-08-17T17:41:29.997Z,6.10
2018-08-17T17:43:58.410Z,5.53
2018-08-17T17:46:26.833Z,5.10
2018-08-17T17:48:55.212Z,6.77
2018-08-17T17:51:23.624Z,8.57
2018-08-17T17:53:52.015Z,6.90
2018-08-17T17:56:20.441Z,5.07
2018-08-17T17:58:48.828Z,5.60
2018-08-17T18:01:17.296Z,5.10
2018-08-17T18:03:46.276Z,4.60
2018-08-17T18:06:14.720Z,3.93
2018-08-17T18:08:43.174Z,5.37
2018-08-17T18:11:11.581Z,6.50
2018-08-17T18:13:39.984Z,7.07
2018-08-17T18:16:08.448Z,6.40
2018-08-17T18:18:36.902Z,7.67
2018-08-17T18:21:05.388Z,10.07
2018-08-17T18:23:33.820Z,7.57
2018-08-17T18:26:02.436Z,6.47
2018-08-17T18:28:30.915Z,5.67
2018-08-17T18:30:59.381Z,4.50
2018-08-17T18:33:27.872Z,4.27
2018-08-17T18:35:56.286Z,4.20
2018-08-17T18:38:24.692Z,4.20
2018-08-17T18:40:53.098Z,3.90
2018-08-17T18:43:21.527Z,6.00
2018-08-17T18:45:49.974Z,10.50
2018-08-17T18:48:18.456Z,6.30
2018-08-17T18:50:46.848Z,8.20
2018-08-17T18:53:15.243Z,9.13
2018-08-17T18:55:43.657Z,12.53
2018-08-17T18:58:12.075Z,10.33
2018-08-17T19:00:40.509Z,12.07
2018-08-17T19:03:08.960Z,9.53
2018-08-17T19:05:37.417Z,10.00
2018-08-17T19:08:05.902Z,9.83
2018-08-17T19:10:34.475Z,9.83
2018-08-17T19:13:02.829Z,10.17
2018-08-17T19:15:39.437Z,9.60
2018-08-17T19:18:07.748Z,10.63
2018-08-17T19:20:36.200Z,12.77
2018-08-17T19:23:04.619Z,14.03
2018-08-17T19:25:34.644Z,13.37
2018-08-17T19:28:03.091Z,12.87
2018-08-17T19:30:33.530Z,13.17
2018-08-17T19:33:08.245Z,14.40
2018-08-17T19:35:36.825Z,13.07
2018-08-17T19:38:05.315Z,13.00
2018-08-17T19:40:33.753Z,13.27
2018-08-17T19:43:02.312Z,13.27
2018-08-17T19:45:30.831Z,13.30
2018-08-17T19:47:59.270Z,12.33
2018-08-17T19:50:27.706Z,12.47
2018-08-17T19:52:56.181Z,12.20
2018-08-17T19:55:24.560Z,12.17
2018-08-17T19:57:52.960Z,11.63
2018-08-17T20:00:21.578Z,11.60
2018-08-17T20:02:50.013Z,9.27
2018-08-17T20:05:18.416Z,10.67
2018-08-17T20:07:47.044Z,10.80
2018-08-17T20:10:15.535Z,10.17
2018-08-17T20:12:44.152Z,10.43
2018-08-17T20:15:12.568Z,10.37
2018-08-17T20:17:45.493Z,10.53
2018-08-17T20:20:13.960Z,10.37
2018-08-17T20:22:42.393Z,10.20
2018-08-17T20:25:16.368Z,11.73
2018-08-17T20:27:45.664Z,24.70
2018-08-17T20:30:19.365Z,19.57
2018-08-17T20:32:47.871Z,13.50
2018-08-17T20:35:16.428Z,12.63
2018-08-17T20:37:48.203Z,12.73
2018-08-17T20:40:17.097Z,10.17
2018-08-17T20:42:45.860Z,10.90
2018-08-17T20:45:14.337Z,9.43
2018-08-17T20:47:43.451Z,9.77
2018-08-17T20:50:14.404Z,9.47
2018-08-17T20:52:49.213Z,8.67
2018-08-17T20:55:18.217Z,9.10
2018-08-17T20:57:49.107Z,9.07
2018-08-17T21:00:17.630Z,9.57
2018-08-17T21:02:46.489Z,9.37
2018-08-17T21:05:15.716Z,9.40
2018-08-17T21:07:44.295Z,8.80
2018-08-17T21:10:12.735Z,9.50
2018-08-17T21:12:41.192Z,9.30
2018-08-17T21:15:09.743Z,9.73
2018-08-17T21:17:38.136Z,8.97
2018-08-17T21:20:06.928Z,9.40
2018-08-17T21:22:35.370Z,9.23
2018-08-17T21:25:03.933Z,9.67
2018-08-17T21:27:32.983Z,9.23
2018-08-17T21:30:02.449Z,9.23
2018-08-17T21:32:30.901Z,9.60
2018-08-17T21:34:59.358Z,9.40
2018-08-17T21:37:28.332Z,9.87
2018-08-17T21:39:57.009Z,8.80
2018-08-17T21:42:25.436Z,8.77
2018-08-17T21:44:53.876Z,9.17
2018-08-17T21:47:22.430Z,9.23
2018-08-17T21:49:54.109Z,9.33
2018-08-17T21:52:23.996Z,9.03
2018-08-17T21:54:52.423Z,9.13
2018-08-17T21:57:20.893Z,9.23
2018-08-17T21:59:50.904Z,9.27
2018-08-17T22:02:20.540Z,9.27
2018-08-17T22:04:48.950Z,8.90
2018-08-17T22:07:21.500Z,9.00
2018-08-17T22:09:50.660Z,8.87
2018-08-17T22:12:19.091Z,8.80
2018-08-17T22:14:48.472Z,9.00
2018-08-17T22:17:29.963Z,8.80
2018-08-17T22:19:58.622Z,9.07
2018-08-17T22:22:27.053Z,9.30
2018-08-17T22:24:57.633Z,8.60
2018-08-17T22:27:27.164Z,9.43
2018-08-17T22:29:56.883Z,12.33
2018-08-17T22:32:25.844Z,12.63
2018-08-17T22:34:54.625Z,12.50
2018-08-17T22:37:23.187Z,11.87
2018-08-17T22:39:51.643Z,11.50
2018-08-17T22:42:21.932Z,11.83
2018-08-17T22:44:50.795Z,11.70
2018-08-17T22:47:22.508Z,12.13
2018-08-17T22:49:51.819Z,12.13
2018-08-17T22:52:20.282Z,12.30
2018-08-17T22:56:17.923Z,11.63
2018-08-17T22:58:48.872Z,11.97
2018-08-17T23:01:19.502Z,11.97
2018-08-17T23:03:54.453Z,12.20
2018-08-17T23:06:24.583Z,12.33
2018-08-17T23:08:52.997Z,12.43
2018-08-17T23:11:29.085Z,12.57
2018-08-17T23:14:00.319Z,11.80
2018-08-17T23:16:29.341Z,12.03
2018-08-17T23:18:57.765Z,12.07
2018-08-17T23:21:26.175Z,12.57
2018-08-17T23:23:54.773Z,12.60
2018-08-17T23:26:23.156Z,13.03
2018-08-17T23:28:51.577Z,11.83
2018-08-17T23:31:19.973Z,10.47
2018-08-17T23:33:48.380Z,10.20
2018-08-17T23:36:16.920Z,10.10
2018-08-17T23:38:45.352Z,9.57
2018-08-17T23:41:13.845Z,9.60
2018-08-17T23:43:42.189Z,9.73
2018-08-17T23:46:10.604Z,10.13
2018-08-17T23:48:39.012Z,10.70
2018-08-17T23:51:07.480Z,10.37
2018-08-17T23:53:35.986Z,10.53
2018-08-17T23:56:04.434Z,10.33
2018-08-17T23:58:32.861Z,11.20
